Time;durP1;ratioP1;P1;durP2;ratioP2;P2;SDS_P1;SDS_P2;PMS_P1;PMS_P2;Temp;Humidity;BMP_temperature;BMP_pressure;BME280_temperature;BME280_humidity;BME280_pressure;Samples;Min_cycle;Max_cycle;Signal;HPM_P1;HPM_P2
2022/05/08 00:01:03;;;;;;;;;18.50;17.50;;;;;18.97;100.00;102093.41;5089970;27;46938;-72
2022/05/08 00:03:29;;;;;;;;;20.67;19.33;;;;;18.91;100.00;102089.81;5090793;27;45518;-72
2022/05/08 00:05:55;;;;;;;;;19.00;18.00;;;;;18.92;100.00;102094.31;5090059;27;45839;-71
2022/05/08 00:08:20;;;;;;;;;16.00;16.00;;;;;18.88;100.00;102104.13;5093401;27;57833;-72
2022/05/08 00:10:46;;;;;;;;;19.33;16.67;;;;;18.84;100.00;102092.53;5089724;27;45391;-72
2022/05/08 00:13:11;;;;;;;;;17.00;16.00;;;;;18.83;100.00;102096.09;5097196;27;45326;-71
2022/05/08 00:15:37;;;;;;;;;17.00;15.33;;;;;18.80;100.00;102096.13;5073950;27;47805;-73
2022/05/08 00:18:02;;;;;;;;;23.67;19.67;;;;;18.80;100.00;102097.88;5096794;27;58062;-72
2022/05/08 00:20:28;;;;;;;;;18.50;17.25;;;;;18.75;100.00;102092.56;5091528;27;45384;-72
2022/05/08 00:22:53;;;;;;;;;20.67;17.00;;;;;18.70;100.00;102083.66;5093537;27;49241;-71
2022/05/08 00:25:19;;;;;;;;;18.00;17.00;;;;;18.73;100.00;102094.34;5095890;27;60846;-71
2022/05/08 00:27:45;;;;;;;;;18.00;18.00;;;;;18.69;100.00;102095.25;5090944;27;51175;-71
2022/05/08 00:30:11;;;;;;;;;15.33;15.33;;;;;18.69;100.00;102097.91;5077510;27;48281;-71
2022/05/08 00:32:36;;;;;;;;;17.67;17.00;;;;;18.67;100.00;102093.44;5093259;27;45543;-70
2022/05/08 00:35:01;;;;;;;;;17.67;16.67;;;;;18.61;100.00;102096.13;5089577;27;46831;-71
2022/05/08 00:37:27;;;;;;;;;20.67;16.00;;;;;18.61;100.00;102102.38;5090770;27;45493;-71
2022/05/08 00:39:52;;;;;;;;;24.33;16.33;;;;;18.59;100.00;102107.75;5090366;27;51094;-72
2022/05/08 00:42:17;;;;;;;;;17.00;15.00;;;;;18.51;100.00;102100.59;5091010;27;50613;-72
2022/05/08 00:44:43;;;;;;;;;17.67;16.33;;;;;18.51;100.00;102103.28;5076313;27;61490;-72
2022/05/08 00:47:08;;;;;;;;;17.00;16.00;;;;;18.49;100.00;102108.66;5079884;27;45501;-72
2022/05/08 00:49:33;;;;;;;;;18.00;15.67;;;;;18.47;100.00;102101.50;5094904;27;53647;-72
2022/05/08 00:52:00;;;;;;;;;13.67;13.00;;;;;18.44;100.00;102105.09;5091327;27;45413;-72
2022/05/08 00:54:26;;;;;;;;;17.00;16.75;;;;;18.40;100.00;102097.06;5074474;27;46535;-72
2022/05/08 00:56:53;;;;;;;;;18.67;15.67;;;;;18.42;100.00;102103.28;5096584;27;45471;-71
2022/05/08 00:59:19;;;;;;;;;15.67;13.67;;;;;18.42;100.00;102101.50;5087899;27;45298;-72
2022/05/08 01:01:44;;;;;;;;;16.33;13.67;;;;;18.40;100.00;102099.72;5075300;27;45468;-72
2022/05/08 01:04:09;;;;;;;;;17.00;15.33;;;;;18.32;100.00;102095.28;5089078;27;57172;-71
2022/05/08 01:06:35;;;;;;;;;19.50;19.25;;;;;18.34;100.00;102108.66;5091766;27;57097;-72
2022/05/08 01:09:00;;;;;;;;;19.00;19.00;;;;;18.27;100.00;102099.75;5093217;27;53740;-72
2022/05/08 01:11:26;;;;;;;;;15.00;15.00;;;;;18.26;100.00;102105.06;5096985;27;49132;-72
2022/05/08 01:13:51;;;;;;;;;19.33;18.00;;;;;18.23;100.00;102110.44;5096464;27;46478;-71
2022/05/08 01:16:18;;;;;;;;;17.00;17.00;;;;;18.21;100.00;102106.84;5096993;27;46872;-72
2022/05/08 01:18:45;;;;;;;;;17.00;16.00;;;;;18.21;100.00;102106.84;5098835;27;45207;-72
2022/05/08 01:21:13;;;;;;;;;17.50;16.50;;;;;18.19;100.00;102106.88;5074162;27;45546;-72
2022/05/08 01:23:39;;;;;;;;;18.00;17.50;;;;;18.13;100.00;102095.28;5094478;27;45705;-72
2022/05/08 01:26:05;;;;;;;;;19.75;16.50;;;;;18.13;100.00;102098.84;5094140;27;45532;-73
2022/05/08 01:28:30;;;;;;;;;22.67;19.00;;;;;18.06;100.00;102089.06;5092917;27;45387;-72
2022/05/08 01:30:56;;;;;;;;;19.00;15.67;;;;;18.05;100.00;102092.59;5092757;27;55817;-72
2022/05/08 01:33:23;;;;;;;;;18.33;16.67;;;;;17.96;100.00;102076.59;5095326;27;45372;-72
2022/05/08 01:35:49;;;;;;;;;21.00;17.00;;;;;18.01;100.00;102088.16;5094123;27;45573;-72
2022/05/08 01:38:17;;;;;;;;;19.67;18.00;;;;;18.01;100.00;102090.84;5080087;27;45552;-72
2022/05/08 01:40:43;;;;;;;;;20.50;19.00;;;;;17.99;100.00;102092.59;5094427;27;45461;-72
2022/05/08 01:43:10;;;;;;;;;19.00;17.50;;;;;17.94;100.00;102089.03;5097313;27;46366;-72
2022/05/08 01:45:35;;;;;;;;;21.50;19.50;;;;;17.91;100.00;102086.38;5098230;27;45379;-72
2022/05/08 01:50:45;;;;;;;;;20.75;18.75;;;;;17.88;100.00;102094.38;5092052;27;45286;-72
2022/05/08 01:53:10;;;;;;;;;22.50;19.75;;;;;17.85;100.00;102092.63;5088236;27;46557;-72
2022/05/08 01:55:36;;;;;;;;;21.00;21.00;;;;;17.83;100.00;102090.81;5096307;27;45436;-72
2022/05/08 01:58:04;;;;;;;;;18.00;18.00;;;;;17.79;100.00;102092.59;5098142;27;45307;-72
2022/05/08 02:00:30;;;;;;;;;25.50;21.25;;;;;17.74;100.00;102086.38;5097958;27;46215;-72
2022/05/08 02:03:00;;;;;;;;;24.50;19.75;;;;;17.75;100.00;102088.16;5097940;27;46817;-73
2022/05/08 02:05:28;;;;;;;;;24.25;21.50;;;;;17.70;100.00;102093.44;5097444;27;45357;-72
2022/05/08 02:07:53;;;;;;;;;26.00;22.25;;;;;17.70;100.00;102098.78;5080506;27;45281;-72
2022/05/08 02:10:18;;;;;;;;;28.75;24.25;;;;;17.66;100.00;102091.66;5097881;27;46176;-72
2022/05/08 02:12:44;;;;;;;;;25.25;21.00;;;;;17.67;100.00;102104.09;5092434;27;46475;-72
2022/05/08 02:15:12;;;;;;;;;23.25;22.00;;;;;17.63;100.00;102091.66;5098019;27;45272;-73
2022/05/08 02:17:38;;;;;;;;;32.25;28.75;;;;;17.63;100.00;102091.66;5097470;27;45354;-72
2022/05/08 02:20:06;;;;;;;;;28.75;24.75;;;;;17.62;100.00;102087.19;5096138;27;45397;-73
2022/05/08 02:22:32;;;;;;;;;25.75;23.50;;;;;17.63;100.00;102093.41;5097754;27;45843;-72
2022/05/08 02:24:58;;;;;;;;;28.25;23.50;;;;;17.59;100.00;102092.53;5095540;27;45297;-73
2022/05/08 02:27:24;;;;;;;;;25.50;24.00;;;;;17.52;100.00;102090.72;5093532;27;45265;-73
2022/05/08 02:29:50;;;;;;;;;30.50;28.50;;;;;17.59;100.00;102103.22;5091437;27;45202;-72
2022/05/08 02:32:16;;;;;;;;;28.25;25.50;;;;;17.54;100.00;102094.28;5095222;27;46213;-72
2022/05/08 02:34:42;;;;;;;;;27.00;25.00;;;;;17.52;100.00;102102.31;5077671;27;45422;-73
2022/05/08 02:37:08;;;;;;;;;26.00;21.25;;;;;17.50;100.00;102097.84;5097115;27;54822;-73
2022/05/08 02:39:33;;;;;;;;;30.00;24.75;;;;;17.49;100.00;102096.94;5096570;27;45520;-73
2022/05/08 02:41:58;;;;;;;;;32.50;29.25;;;;;17.50;100.00;102103.19;5094437;27;63418;-72
2022/05/08 02:44:24;;;;;;;;;33.00;30.00;;;;;17.48;100.00;102104.97;5095128;27;56041;-72
2022/05/08 02:46:49;;;;;;;;;30.00;26.25;;;;;17.49;100.00;102115.66;5097531;27;45489;-72
2022/05/08 02:49:15;;;;;;;;;27.75;25.75;;;;;17.46;100.00;102112.06;5097259;27;45421;-72
2022/05/08 02:51:40;;;;;;;;;30.00;27.25;;;;;17.42;100.00;102119.19;5097047;27;57382;-72
2022/05/08 02:54:05;;;;;;;;;29.50;29.25;;;;;17.37;100.00;102112.94;5091992;27;45371;-72
2022/05/08 02:59:15;;;;;;;;;34.25;30.25;;;;;17.30;100.00;102111.13;5097139;27;45463;-72
2022/05/08 03:01:40;;;;;;;;;30.50;28.00;;;;;17.31;100.00;102118.28;5092335;27;45542;-72
2022/05/08 03:04:06;;;;;;;;;34.50;30.75;;;;;17.30;100.00;102121.78;5096507;27;60348;-72
2022/05/08 03:06:31;;;;;;;;;42.75;34.25;;;;;17.27;100.00;102121.81;5095651;27;45412;-72
2022/05/08 03:08:58;;;;;;;;;37.75;33.50;;;;;17.26;100.00;102120.03;5093219;27;45433;-73
2022/05/08 03:11:26;;;;;;;;;44.25;33.25;;;;;17.25;100.00;102128.91;5076884;27;46741;-72
2022/05/08 03:13:53;;;;;;;;;36.25;31.00;;;;;17.22;100.00;102124.44;5075909;27;45357;-72
2022/05/08 03:16:18;;;;;;;;;39.75;33.25;;;;;17.17;100.00;102120.88;5096159;27;45544;-72
2022/05/08 03:18:45;;;;;;;;;40.25;33.50;;;;;17.18;100.00;102127.97;5097228;27;45453;-72
2022/05/08 03:21:12;;;;;;;;;46.00;36.00;;;;;17.15;100.00;102122.66;5078500;27;45544;-72
2022/05/08 03:23:42;;;;;;;;;42.00;34.75;;;;;17.16;100.00;102119.09;5090784;27;45536;-72
2022/05/08 03:26:08;;;;;;;;;42.75;36.00;;;;;17.15;100.00;102119.97;5096165;27;45342;-72
2022/05/08 03:28:38;;;;;;;;;42.25;35.75;;;;;17.13;100.00;102121.72;5087256;27;45539;-72
2022/05/08 03:31:03;;;;;;;;;40.25;34.50;;;;;17.11;100.00;102126.19;5091033;27;46479;-72
2022/05/08 03:33:30;;;;;;;;;44.50;35.25;;;;;17.09;100.00;102125.25;5092242;27;45291;-72
2022/05/08 03:35:55;;;;;;;;;34.75;26.00;;;;;17.10;100.00;102123.47;5088319;27;45355;-72
2022/05/08 03:38:21;;;;;;;;;46.75;36.75;;;;;17.10;100.00;102123.47;5089971;27;56334;-72
2022/05/08 03:40:47;;;;;;;;;47.50;37.25;;;;;17.09;100.00;102119.94;5095045;27;45829;-72
2022/05/08 03:43:12;;;;;;;;;49.00;37.75;;;;;17.12;100.00;102127.97;5092863;27;45353;-72
2022/05/08 03:45:37;;;;;;;;;49.00;38.25;;;;;17.14;100.00;102125.28;5091343;27;49073;-72
2022/05/08 03:48:03;;;;;;;;;41.25;36.50;;;;;17.15;100.00;102122.66;5089426;27;53729;-72
2022/05/08 03:50:29;;;;;;;;;52.00;40.25;;;;;17.14;100.00;102125.28;5078329;27;45810;-72
2022/05/08 03:52:55;;;;;;;;;47.50;38.25;;;;;17.17;100.00;102125.31;5088428;27;45568;-72
2022/05/08 03:55:21;;;;;;;;;48.50;39.50;;;;;17.16;100.00;102121.75;5089991;27;45405;-72
2022/05/08 03:57:47;;;;;;;;;46.75;37.00;;;;;17.15;100.00;102130.66;5094237;27;45221;-72
2022/05/08 04:00:13;;;;;;;;;46.00;38.25;;;;;17.17;100.00;102130.66;5096188;27;46446;-71
2022/05/08 04:02:39;;;;;;;;;52.50;41.75;;;;;17.14;100.00;102119.94;5095270;27;45276;-72
2022/05/08 04:05:06;;;;;;;;;42.25;35.75;;;;;17.17;100.00;102122.66;5095818;27;45344;-72
2022/05/08 04:07:31;;;;;;;;;47.00;38.00;;;;;17.21;100.00;102129.78;5092521;27;45502;-72
2022/05/08 04:09:58;;;;;;;;;48.25;40.25;;;;;17.24;100.00;102127.13;5093190;27;63491;-72
2022/05/08 04:12:24;;;;;;;;;48.00;39.25;;;;;17.21;100.00;102117.34;5089973;27;45486;-73
2022/05/08 04:14:49;;;;;;;;;48.00;39.75;;;;;17.26;100.00;102120.91;5096346;27;45537;-72
2022/05/08 04:17:16;;;;;;;;;44.50;37.75;;;;;17.24;100.00;102122.66;5076759;27;50060;-72
2022/05/08 04:19:42;;;;;;;;;46.50;39.75;;;;;17.25;100.00;102115.53;5090149;27;46384;-72
2022/05/08 04:24:52;;;;;;;;;49.50;39.25;;;;;17.29;100.00;102131.59;5089375;27;45596;-72
2022/05/08 04:27:17;;;;;;;;;48.75;39.75;;;;;17.28;100.00;102128.91;5089664;27;55010;-72
2022/05/08 04:29:42;;;;;;;;;50.75;38.00;;;;;17.28;100.00;102139.59;5094271;27;46302;-72
2022/05/08 04:32:08;;;;;;;;;49.50;38.50;;;;;17.27;100.00;102143.16;5095272;27;45212;-72
2022/05/08 04:34:33;;;;;;;;;49.00;40.00;;;;;17.22;100.00;102137.78;5075360;27;52980;-72
2022/05/08 04:36:58;;;;;;;;;49.00;39.00;;;;;17.26;100.00;102133.38;5095456;27;54303;-72
2022/05/08 04:39:24;;;;;;;;;48.75;40.50;;;;;17.26;100.00;102139.59;5097778;27;61335;-72
2022/05/08 04:41:49;;;;;;;;;52.00;42.25;;;;;17.27;100.00;102140.50;5098319;27;57517;-72
2022/05/08 04:44:15;;;;;;;;;51.00;40.50;;;;;17.25;100.00;102136.91;5092357;27;45778;-72
2022/05/08 04:46:40;;;;;;;;;48.25;39.75;;;;;17.24;100.00;102136.00;5098478;27;52442;-72
2022/05/08 04:49:05;;;;;;;;;51.25;41.25;;;;;17.26;100.00;102142.28;5098132;27;46851;-72
2022/05/08 04:51:31;;;;;;;;;51.50;40.75;;;;;17.31;100.00;102147.63;5091841;27;57188;-72
2022/05/08 04:53:56;;;;;;;;;55.00;40.25;;;;;17.25;100.00;102143.13;5097575;27;54263;-72
2022/05/08 04:56:22;;;;;;;;;49.50;41.00;;;;;17.28;100.00;102151.16;5098403;27;45446;-72
2022/05/08 04:58:47;;;;;;;;;53.25;42.00;;;;;17.31;100.00;102154.72;5094336;27;46277;-72
2022/05/08 05:01:13;;;;;;;;;51.75;41.00;;;;;17.33;100.00;102152.97;5099360;27;45552;-72
2022/05/08 05:03:39;;;;;;;;;51.25;43.50;;;;;17.32;100.00;102156.53;5098090;27;45454;-72
2022/05/08 05:06:04;;;;;;;;;55.25;42.00;;;;;17.31;100.00;102154.72;5098155;27;45504;-72
2022/05/08 05:08:30;;;;;;;;;49.50;42.50;;;;;17.32;100.00;102148.53;5090528;27;49449;-72
2022/05/08 05:10:55;;;;;;;;;49.75;41.50;;;;;17.32;100.00;102161.88;5098001;27;62326;-72
2022/05/08 05:13:20;;;;;;;;;53.00;42.00;;;;;17.31;100.00;102166.31;5097634;27;45669;-72
2022/05/08 05:15:46;;;;;;;;;50.75;39.25;;;;;17.28;100.00;102167.19;5098837;27;45525;-72
2022/05/08 05:18:11;;;;;;;;;49.25;41.50;;;;;17.29;100.00;102168.97;5095195;27;46639;-73
2022/05/08 05:20:37;;;;;;;;;48.25;39.25;;;;;17.29;100.00;102166.28;5078278;27;56613;-72
2022/05/08 05:23:03;;;;;;;;;50.25;40.25;;;;;17.32;100.00;102173.44;5092159;27;45465;-72
2022/05/08 05:25:29;;;;;;;;;54.25;40.50;;;;;17.35;100.00;102180.56;5096236;27;45628;-72
2022/05/08 05:27:55;;;;;;;;;48.00;38.75;;;;;17.35;100.00;102177.88;5128966;22;46172;-72
2022/05/08 05:30:21;;;;;;;;;50.50;39.25;;;;;17.38;100.00;102185.94;5097214;27;45378;-72
2022/05/08 05:32:46;;;;;;;;;54.25;43.75;;;;;17.37;100.00;102187.72;5097935;27;45543;-72
2022/05/08 05:35:12;;;;;;;;;47.00;38.75;;;;;17.36;100.00;102193.91;5098439;27;45388;-72
2022/05/08 05:37:38;;;;;;;;;53.25;41.25;;;;;17.37;100.00;102201.06;5098263;27;49774;-73
2022/05/08 05:40:04;;;;;;;;;50.75;42.00;;;;;17.39;100.00;102198.38;5079575;27;45561;-72
2022/05/08 05:42:31;;;;;;;;;53.00;41.50;;;;;17.38;100.00;102201.94;5098358;27;45216;-72
2022/05/08 05:44:57;;;;;;;;;52.75;44.00;;;;;17.36;100.00;102199.25;5097383;27;45416;-73
2022/05/08 05:50:08;;;;;;;;;55.50;42.25;;;;;17.38;100.00;102207.28;5098187;27;45340;-72
2022/05/08 05:52:37;;;;;;;;;49.75;40.75;;;;;17.38;100.00;102204.63;5098146;27;45422;-72
2022/05/08 05:55:06;;;;;;;;;50.75;41.25;;;;;17.39;100.00;102209.94;5098791;27;45375;-72
2022/05/08 05:57:33;;;;;;;;;48.00;40.00;;;;;17.37;100.00;102201.06;5097693;27;46443;-72
2022/05/08 05:59:58;;;;;;;;;55.00;42.00;;;;;17.40;100.00;102213.50;5098295;27;45449;-73
2022/05/08 06:02:24;;;;;;;;;48.75;40.00;;;;;17.39;100.00;102211.72;5079324;27;47437;-71
2022/05/08 06:04:49;;;;;;;;;50.75;40.75;;;;;17.38;100.00;102213.50;5098567;27;45326;-72
2022/05/08 06:07:14;;;;;;;;;55.75;41.75;;;;;17.40;100.00;102214.41;5097818;27;46003;-72
2022/05/08 06:09:39;;;;;;;;;52.25;42.75;;;;;17.41;100.00;102217.97;5096939;27;57495;-72
2022/05/08 06:12:05;;;;;;;;;53.50;42.00;;;;;17.40;100.00;102214.41;5097199;27;53343;-72
2022/05/08 06:14:31;;;;;;;;;52.25;41.50;;;;;17.42;100.00;102225.13;5098363;27;45430;-72
2022/05/08 06:16:57;;;;;;;;;53.25;42.50;;;;;17.40;100.00;102222.41;5097650;27;45595;-72
2022/05/08 06:19:22;;;;;;;;;51.75;42.50;;;;;17.39;100.00;102223.31;5097829;27;45322;-72
2022/05/08 06:21:48;;;;;;;;;49.75;40.50;;;;;17.44;100.00;102226.00;5098048;27;45474;-72
2022/05/08 06:24:13;;;;;;;;;53.25;41.50;;;;;17.44;100.00;102231.34;5078994;27;45457;-72
2022/05/08 06:26:39;;;;;;;;;50.00;40.25;;;;;17.46;100.00;102230.44;5097062;27;46319;-72
2022/05/08 06:29:04;;;;;;;;;52.50;41.75;;;;;17.46;100.00;102224.22;5099860;27;61988;-72
2022/05/08 06:31:30;;;;;;;;;53.00;39.75;;;;;17.46;100.00;102222.44;5097387;27;45429;-72
2022/05/08 06:33:55;;;;;;;;;49.75;40.00;;;;;17.50;100.00;102223.34;5097246;27;45549;-73
2022/05/08 06:36:21;;;;;;;;;46.25;35.75;;;;;17.50;100.00;102226.03;5079345;27;45670;-73
2022/05/08 06:38:46;;;;;;;;;48.25;38.50;;;;;17.52;100.00;102224.25;5097304;27;45251;-73
2022/05/08 06:41:12;;;;;;;;;48.00;38.75;;;;;17.54;100.00;102223.38;5097890;27;45309;-72
2022/05/08 06:43:40;;;;;;;;;52.75;40.25;;;;;17.60;100.00;102234.97;5097523;27;45489;-72
2022/05/08 06:46:06;;;;;;;;;54.25;42.00;;;;;17.57;100.00;102225.16;5096283;27;45476;-72
2022/05/08 06:48:32;;;;;;;;;47.25;36.25;;;;;17.61;100.00;102229.63;5098290;27;45251;-72
2022/05/08 06:50:58;;;;;;;;;48.00;40.00;;;;;17.60;100.00;102224.28;5079626;27;45650;-72
2022/05/08 06:53:23;;;;;;;;;47.75;37.00;;;;;17.62;100.00;102228.75;5098160;27;45195;-72
2022/05/08 06:55:48;;;;;;;;;47.75;39.50;;;;;17.64;100.00;102228.78;5097517;27;60230;-72
2022/05/08 06:58:14;;;;;;;;;53.50;43.50;;;;;17.71;100.00;102239.47;5097489;27;55152;-72
2022/05/08 07:03:23;;;;;;;;;47.50;38.25;;;;;17.76;100.00;102244.88;5097721;27;45283;-72
2022/05/08 07:05:49;;;;;;;;;48.25;39.25;;;;;17.79;100.00;102242.22;5096518;27;46284;-73
2022/05/08 07:08:15;;;;;;;;;49.50;39.50;;;;;17.82;100.00;102244.91;5097775;27;45370;-73
2022/05/08 07:10:41;;;;;;;;;48.75;40.75;;;;;17.82;100.00;102238.66;5097390;27;45481;-73
2022/05/08 07:13:06;;;;;;;;;46.50;38.00;;;;;17.85;100.00;102247.59;5097323;27;46304;-73
2022/05/08 07:15:32;;;;;;;;;49.50;39.25;;;;;17.86;100.00;102243.13;5097638;27;46405;-72
2022/05/08 07:17:57;;;;;;;;;48.75;39.25;;;;;17.88;100.00;102246.69;5079266;27;45402;-73
2022/05/08 07:20:23;;;;;;;;;46.50;38.75;;;;;17.89;100.00;102241.34;5098157;27;45334;-72
2022/05/08 07:22:49;;;;;;;;;38.50;33.50;;;;;17.89;100.00;102251.13;5097636;27;45557;-72
2022/05/08 07:25:14;;;;;;;;;48.75;36.00;;;;;17.94;100.00;102252.06;5097614;27;45403;-72
2022/05/08 07:27:40;;;;;;;;;50.50;40.00;;;;;17.96;100.00;102259.22;5092531;27;56055;-73
2022/05/08 07:30:08;;;;;;;;;50.00;39.00;;;;;18.00;100.00;102254.75;5097098;27;45652;-72
2022/05/08 07:32:34;;;;;;;;;49.25;38.00;;;;;18.00;100.00;102249.41;5096205;27;45542;-73
2022/05/08 07:37:44;;;;;;;;;47.25;37.25;;;;;17.99;100.00;102252.97;5089330;27;45514;-72
2022/05/08 07:40:11;;;;;;;;;49.00;40.00;;;;;18.07;100.00;102267.25;5096686;27;45327;-72
2022/05/08 07:42:37;;;;;;;;;55.00;39.00;;;;;18.08;100.00;102261.00;5092770;27;45433;-72
2022/05/08 07:45:03;;;;;;;;;49.00;38.75;;;;;18.10;100.00;102261.91;5096091;27;57623;-72
2022/05/08 07:47:28;;;;;;;;;52.25;39.25;;;;;18.15;100.00;102265.47;5092891;27;45256;-72
2022/05/08 07:49:54;;;;;;;;;48.00;37.50;;;;;18.14;100.00;102269.06;5096369;27;53139;-73
2022/05/08 07:52:19;;;;;;;;;49.75;37.00;;;;;18.14;100.00;102268.16;5096407;27;45514;-73
2022/05/08 07:54:45;;;;;;;;;50.25;40.00;;;;;18.12;100.00;102265.50;5095796;27;62492;-72
2022/05/08 07:57:10;;;;;;;;;48.00;38.50;;;;;18.17;100.00;102279.75;5095365;27;57824;-72
2022/05/08 07:59:35;;;;;;;;;52.75;40.25;;;;;18.17;100.00;102268.19;5094718;27;45763;-72
2022/05/08 08:02:02;;;;;;;;;50.75;40.25;;;;;18.18;100.00;102272.63;5095693;27;53266;-73
2022/05/08 08:04:28;;;;;;;;;51.25;40.50;;;;;18.22;100.00;102282.44;5095968;27;46470;-72
2022/05/08 08:06:53;;;;;;;;;48.00;38.25;;;;;18.25;100.00;102288.69;5095991;27;45517;-72
2022/05/08 08:09:19;;;;;;;;;54.25;42.00;;;;;18.28;100.00;102279.78;5095329;27;46965;-72
2022/05/08 08:11:44;;;;;;;;;49.50;38.50;;;;;18.30;100.00;102286.91;5095916;27;45450;-72
2022/05/08 08:14:09;;;;;;;;;46.25;37.50;;;;;18.37;100.00;102290.47;5099751;27;47298;-72
2022/05/08 08:16:35;;;;;;;;;50.25;40.25;;;;;18.39;100.00;102291.41;5080984;27;45353;-72
2022/05/08 08:19:00;;;;;;;;;50.75;38.75;;;;;18.39;100.00;102282.50;5099829;27;45502;-72
2022/05/08 08:21:26;;;;;;;;;47.25;37.75;;;;;18.38;100.00;102284.28;5099593;27;45537;-72
2022/05/08 08:23:51;;;;;;;;;45.50;36.00;;;;;18.41;100.00;102286.03;5099270;27;46154;-72
2022/05/08 08:26:17;;;;;;;;;47.75;39.25;;;;;18.44;100.00;102286.06;5098292;27;59616;-72
2022/05/08 08:28:43;;;;;;;;;46.00;38.25;;;;;18.52;100.00;102285.16;5099896;27;45656;-72
2022/05/08 08:31:09;;;;;;;;;49.25;37.75;;;;;18.58;100.00;102268.22;5098563;27;47099;-72
2022/05/08 08:33:39;;;;;;;;;49.00;38.00;;;;;18.67;100.00;102273.59;5099171;27;45759;-73
2022/05/08 08:36:06;;;;;;;;;43.25;35.25;;;;;18.76;100.00;102278.09;5098929;27;45589;-72
2022/05/08 08:38:31;;;;;;;;;47.75;38.75;;;;;18.80;100.00;102280.78;5099894;27;45481;-72
2022/05/08 08:41:02;;;;;;;;;52.25;37.50;;;;;18.92;100.00;102279.00;5080897;27;45585;-72
2022/05/08 08:43:27;;;;;;;;;50.00;38.75;;;;;18.97;100.00;102286.13;5098038;27;46752;-72
2022/05/08 08:48:44;;;;;;;;;46.00;36.75;;;;;19.19;100.00;102286.09;5099594;27;45549;-73
2022/05/08 08:51:12;;;;;;;;;44.50;36.50;;;;;19.25;100.00;102275.38;5081160;27;45328;-72
2022/05/08 08:53:37;;;;;;;;;48.00;36.25;;;;;19.26;100.00;102272.69;5098879;27;46684;-72
2022/05/08 08:56:03;;;;;;;;;51.00;40.00;;;;;19.30;100.00;102277.16;5099172;27;45398;-73
2022/05/08 08:58:28;;;;;;;;;50.00;40.75;;;;;19.26;100.00;102277.16;5099127;27;45596;-73
2022/05/08 09:00:54;;;;;;;;;46.25;36.75;;;;;19.26;100.00;102293.22;5099080;27;45493;-72
2022/05/08 09:03:27;;;;;;;;;48.75;39.75;;;;;19.23;100.00;102277.16;5090839;27;47158;-73
2022/05/08 09:06:02;;;;;;;;;47.25;36.50;;;;;19.21;100.00;102287.88;5094726;27;47153;-73
2022/05/08 09:08:32;;;;;;;;;45.25;35.00;;;;;19.21;100.00;102286.97;5098450;27;45260;-72
2022/05/08 09:10:58;;;;;;;;;44.25;38.00;;;;;19.25;100.00;102278.06;5090817;27;45399;-73
2022/05/08 09:13:28;;;;;;;;;45.50;38.00;;;;;19.26;100.00;102278.03;5096727;27;45615;-72
2022/05/08 09:16:11;;;;;;;;;46.00;37.75;;;;;19.31;100.00;102283.41;5094128;27;45491;-73
2022/05/08 09:18:46;;;;;;;;;49.50;37.00;;;;;19.34;100.00;102281.63;5095911;27;51568;-73
2022/05/08 09:24:08;;;;;;;;;49.75;39.50;;;;;19.44;100.00;102282.50;5090586;27;45446;-72
2022/05/08 09:26:34;;;;;;;;;44.75;35.75;;;;;19.43;100.00;102278.00;5089552;27;45559;-72
2022/05/08 09:28:59;;;;;;;;;48.75;38.50;;;;;19.55;100.00;102285.16;5089141;27;46728;-73
2022/05/08 09:31:25;;;;;;;;;46.75;38.50;;;;;19.61;100.00;102283.38;5075636;27;55502;-73
2022/05/08 09:33:51;;;;;;;;;48.25;37.50;;;;;19.70;100.00;102284.22;5093000;27;51792;-72
2022/05/08 09:36:17;;;;;;;;;47.00;38.25;;;;;19.79;100.00;102289.53;5093365;27;45316;-72
2022/05/08 09:38:45;;;;;;;;;46.75;37.00;;;;;19.82;100.00;102285.06;5091462;27;45482;-72
2022/05/08 09:41:11;;;;;;;;;49.50;38.50;;;;;19.86;100.00;102280.56;5092304;27;45335;-74
2022/05/08 09:43:37;;;;;;;;;48.50;38.50;;;;;19.81;100.00;102283.25;5094865;27;45644;-74
2022/05/08 09:46:04;;;;;;;;;48.25;40.00;;;;;19.77;100.00;102275.28;5095719;27;45434;-72
2022/05/08 09:48:35;;;;;;;;;52.75;40.00;;;;;19.78;100.00;102285.97;5089940;27;47337;-72
2022/05/08 09:51:04;;;;;;;;;51.25;40.50;;;;;19.78;100.00;102280.63;5098117;27;45894;-72
2022/05/08 09:53:31;;;;;;;;;51.25;40.75;;;;;19.75;100.00;102285.09;5097840;27;45552;-71
2022/05/08 09:55:57;;;;;;;;;54.75;40.75;;;;;19.73;100.00;102273.50;5095144;27;45549;-73
2022/05/08 09:58:23;;;;;;;;;42.25;35.00;;;;;19.72;100.00;102280.66;5073858;27;45533;-71
2022/05/08 10:00:51;;;;;;;;;56.75;43.75;;;;;19.75;100.00;102271.69;5097953;27;45283;-73
2022/05/08 10:03:17;;;;;;;;;52.50;40.75;;;;;19.75;100.00;102283.28;5096683;27;46718;-74
2022/05/08 10:05:43;;;;;;;;;52.75;42.00;;;;;19.82;100.00;102271.69;5096639;27;45489;-71
2022/05/08 10:08:09;;;;;;;;;51.75;40.25;;;;;19.91;100.00;102265.34;5097916;27;45578;-70
2022/05/08 10:13:53;;;;;;;;;51.50;40.50;;;;;20.10;100.00;102267.06;5097244;27;45816;-71
2022/05/08 10:16:46;;;;;;;;;52.00;40.25;;;;;20.18;100.00;102268.78;5091067;27;45586;-71
2022/05/08 10:19:18;;;;;;;;;52.50;39.00;;;;;20.24;100.00;102264.31;5094378;27;45441;-70
2022/05/08 10:21:56;;;;;;;;;57.00;38.75;;;;;20.26;100.00;102258.94;5097863;27;45331;-70
2022/05/08 10:24:51;;;;;;;;;52.75;42.50;;;;;20.32;100.00;102269.59;5097826;27;46288;-71
2022/05/08 10:27:24;;;;;;;;;50.50;40.50;;;;;20.34;100.00;102252.59;5094419;27;45555;-72
2022/05/08 10:29:49;;;;;;;;;57.25;44.00;;;;;20.45;100.00;102252.50;5090341;27;46251;-71
2022/05/08 10:32:33;;;;;;;;;51.25;39.75;;;;;20.49;100.00;102251.63;5096633;27;45300;-73
2022/05/08 10:35:13;;;;;;;;;47.50;37.75;;;;;20.56;100.00;102263.19;5097213;27;45414;-72
2022/05/08 10:37:41;;;;;;;;;56.50;43.50;;;;;20.66;100.00;102249.69;5097089;27;45576;-73
2022/05/08 10:40:21;;;;;;;;;52.25;40.50;;;;;20.78;100.00;102254.09;5096328;27;46957;-72
2022/05/08 10:42:50;;;;;;;;;46.75;36.00;;;;;20.86;100.00;102245.97;5094884;27;45649;-72
2022/05/08 10:45:46;;;;;;;;;49.75;36.75;;;;;20.98;100.00;102247.63;5090322;27;45830;-71
2022/05/08 10:48:14;;;;;;;;;53.25;39.25;;;;;20.91;100.00;102247.69;5077114;27;45555;-73
2022/05/08 10:50:50;;;;;;;;;54.00;40.50;;;;;20.85;100.00;102245.06;5089722;27;45520;-72
2022/05/08 10:53:24;;;;;;;;;53.50;39.75;;;;;20.84;100.00;102250.47;5083654;27;45621;-73
2022/05/08 10:55:50;;;;;;;;;49.00;38.25;;;;;20.79;100.00;102255.88;5096301;27;46325;-74
2022/05/08 10:58:15;;;;;;;;;49.50;37.75;;;;;20.78;100.00;102234.41;5094609;27;45511;-73
2022/05/08 11:00:41;;;;;;;;;49.25;40.25;;;;;20.82;100.00;102245.09;5096526;27;45485;-72
2022/05/08 11:03:06;;;;;;;;;48.00;37.00;;;;;20.85;100.00;102242.38;5096862;27;45392;-75
2022/05/08 11:05:33;;;;;;;;;51.00;38.00;;;;;20.83;100.00;102244.22;5096233;27;58835;-74
2022/05/08 11:08:05;;;;;;;;;51.50;39.00;;;;;20.87;100.00;102245.94;5096871;27;45277;-75
2022/05/08 11:10:33;;;;;;;;;45.25;36.75;;;;;20.93;100.00;102239.63;5089342;27;45511;-74
2022/05/08 11:13:00;;;;;;;;;47.00;37.25;;;;;21.01;100.00;102234.19;5089890;27;45508;-74
2022/05/08 11:15:29;;;;;;;;;42.75;35.75;;;;;21.17;100.00;102234.00;5086516;27;46531;-73
2022/05/08 11:18:10;;;;;;;;;52.25;40.25;;;;;21.45;100.00;102237.31;5092025;27;45489;-75
2022/05/08 11:20:38;;;;;;;;;47.75;37.75;;;;;21.62;100.00;102230.84;5085706;27;45395;-73
2022/05/08 11:23:04;;;;;;;;;50.25;39.50;;;;;21.78;100.00;102231.53;5094067;27;46029;-72
2022/05/08 11:25:34;;;;;;;;;44.25;35.00;;;;;21.84;100.00;102229.69;5096069;27;46755;-72